Heidelberg, Mississippi
Current Conditions -  °F | °C
As of 5:58 AM on Saturday 20 Dec 2014 (Local Time) from KMEI Reporting Station
Overcast Overcast  
Wind Chill: 36°   Ceiling: 600
Heat Index: 42°   Visibility: 9mi
Dew Point: 40°   Wind: 10mph
Humidity: 92%   Direction: 20°NNE
Pressure: 30.19"   Gusts: NA
Location:  31.89°N, 88.98°W
Report Text: KMEI 201158Z 02009KT 9SM OVC006 06/04 A3019 RMK AO2 SLP222 60000 70050 T00560044 10061 20056 53010
Loading
Personal Weather Stations






























Interactive Weather Map New forecast layout! Learn more

10-Day Weather Forecast

Advertisements
Track Severe Weather on mobile